Flight Track Log - Related Links

Times and Time Zones

All times are in EDT time to prevent confusion due to time zone crossing. See the AIP5031 flight status page for this flight to view local times or setup timezone preferences in your user account.

Time Position Orientation Groundspeed Altitude Reporting Facility
EDT Latitude Longitude Course Direction KTS MPH feet Rate Location/Type
Sat 04:22:18 AM 46.9261 -114.1100 105° East 97 112 4,400  Level Salt Lake Center
Sat 04:23:19 AM 46.9164 -114.1183 210° Southwest 132 152 6,300 2,331 Climbing Salt Lake Center
Sat 04:24:19 AM 46.9044 -114.0469 104° East 150 173 9,100 2,550 Climbing Salt Lake Center
Sat 04:25:19 AM 46.8886 -113.9794 109° East 171 197 11,400 2,083 Climbing Salt Lake Center
Sat 04:26:00 AM 46.8422 -113.6645 101° East  Level Estimated
Sat 04:26:20 AM 46.8750 -113.9117 106° East 176 203 13,300  Level Salt Lake Center
Sat 04:27:00 AM 46.8267 -113.5795 105° East  Level FlightAware Approximate
Sat 04:27:20 AM 46.8608 -113.8392 106° East 184 212 14,100  Level Salt Lake Center
Sat 04:28:21 AM 46.8422 -113.7544 108° East 214 246 14,700 397 Climbing Salt Lake Center
Sat 04:29:21 AM 46.8275 -113.6675 104° East 218 251 14,900 200 Climbing Salt Lake Center
Sat 04:30:21 AM 46.8122 -113.5792 104° East 221 254 15,100 50 Climbing Salt Lake Center
Sat 04:31:22 AM 46.7939 -113.4778 105° East 236 272 15,000  Descending Salt Lake Center
Sat 04:32:22 AM 46.7822 -113.3864 101° East 233 268 15,100 -50 Climbing Salt Lake Center
Sat 04:33:22 AM 46.7667 -113.2944 104° East 233 268 14,900  Descending Salt Lake Center
Sat 04:34:23 AM 46.7533 -113.2072 103° East 237 273 15,100 99 Climbing Salt Lake Center
Sat 04:35:23 AM 46.7350 -113.1133 106° East 239 275 15,100 -100 Level Salt Lake Center
Sat 04:36:23 AM 46.7147 -113.0203 108° East 242 278 14,900  Descending Salt Lake Center
Sat 04:37:24 AM 46.6956 -112.9286 107° East 241 277 15,100  Climbing Salt Lake Center
Sat 04:38:24 AM 46.6786 -112.8356 105° East 239 275 14,900 -100 Descending Salt Lake Center
Sat 04:39:24 AM 46.6592 -112.7422 107° East 238 274 14,900 50 Level Salt Lake Center
Sat 04:40:25 AM 46.6431 -112.6497 104° East 239 275 15,000 50 Climbing Salt Lake Center
Sat 04:41:25 AM 46.6317 -112.5556 100° East 238 274 15,000  Level Salt Lake Center
Sat 04:42:25 AM 46.6156 -112.4617 104° East 239 275 15,000  Level Salt Lake Center
Sat 04:43:26 AM 46.5975 -112.3692 106° East 239 275 15,000  Level Salt Lake Center
Sat 04:44:26 AM 46.5794 -112.2747 106° East 240 276 15,000  Level Salt Lake Center
Sat 04:45:26 AM 46.5606 -112.1783 106° East 245 282 15,000  Level Salt Lake Center
Sat 04:46:27 AM 46.5431 -112.0803 105° East 247 284 15,000  Level Salt Lake Center
Sat 04:47:27 AM 46.5233 -111.9844 107° East 248 285 15,000  Level Salt Lake Center
Sat 04:48:27 AM 46.5019 -111.8897 108° East 249 287 15,000 50 Level Salt Lake Center
Sat 04:49:27 AM 46.4781 -111.7961 110° East 248 285 15,100  Climbing Salt Lake Center
Sat 04:50:28 AM 46.4575 -111.6992 107° East 248 285 15,000 -50 Descending Salt Lake Center
Sat 04:51:28 AM 46.4350 -111.5828 106° East 253 291 15,000  Level Salt Lake Center
Sat 04:52:28 AM 46.4167 -111.4942 107° East 249 287 15,000 -99 Level Salt Lake Center
Sat 04:53:29 AM 46.3967 -111.3964 106° East 249 287 14,800  Descending Salt Lake Center
Sat 04:54:29 AM 46.3772 -111.2983 106° East 249 287 15,000  Climbing Salt Lake Center
Sat 04:55:29 AM 46.3642 -111.1981 101° East 249 287 14,800 -50 Descending Salt Lake Center
Sat 04:56:29 AM 46.3514 -111.0975 100° East 249 287 14,900  Climbing Salt Lake Center
Sat 04:57:30 AM 46.3308 -111.0072 108° East 250 288 14,800 50 Descending Salt Lake Center
Sat 04:58:30 AM 46.3194 -110.9072 99° East 249 287 15,000  Climbing Salt Lake Center
Sat 04:59:30 AM 46.2967 -110.8081 108° East 257 296 14,800  Descending Salt Lake Center
Sat 05:00:30 AM 46.2800 -110.7067 103° East 257 296 15,000 149 Climbing Salt Lake Center
Sat 05:01:31 AM 46.2586 -110.6100 108° East 257 296 15,100 50 Climbing Salt Lake Center
Sat 05:02:31 AM 46.2406 -110.5139 105° East 255 293 15,100  Level Salt Lake Center
Sat 05:03:31 AM 46.2150 -110.4211 112° Southeast 255 293 15,100 -50 Level Salt Lake Center
Sat 05:04:31 AM 46.1878 -110.3333 114° Southeast 249 287 15,000  Descending Salt Lake Center
Sat 05:05:32 AM 46.1658 -110.2447 110° East 241 277 15,100  Climbing Salt Lake Center
Sat 05:06:32 AM 46.1536 -110.1500 101° East 240 276 15,000  Descending Salt Lake Center
Sat 05:07:32 AM 46.1383 -110.0578 103° East 239 275 15,100 50 Climbing Salt Lake Center
Sat 05:08:32 AM 46.1128 -109.9669 112° Southeast 241 277 15,100  Level Salt Lake Center
Sat 05:09:33 AM 46.0936 -109.8750 107° East 241 277 15,100 -99 Level Salt Lake Center
Sat 05:10:33 AM 46.0733 -109.7736 106° East 247 284 14,900 -300 Descending Salt Lake Center
Sat 05:11:33 AM 46.0619 -109.6756 99° East 249 287 14,500 -550 Descending Salt Lake Center
Sat 05:12:33 AM 46.0478 -109.5756 102° East 254 292 13,800 -750 Descending Salt Lake Center
Sat 05:13:33 AM 46.0397 -109.4711 96° East 262 302 13,000 -694 Descending Salt Lake Center
Sat 05:14:34 AM 46.0261 -109.3622 100° East 259 298 12,400 -446 Descending Salt Lake Center
Sat 05:15:34 AM 46.0100 -109.2661 104° East 255 293 12,100 -300 Descending Salt Lake Center
Sat 05:16:34 AM 45.9850 -109.1731 111° Southeast 252 290 11,800 -450 Descending Salt Lake Center
Sat 05:17:34 AM 45.9561 -109.0806 114° Southeast 255 293 11,200 -744 Descending Salt Lake Center
Sat 05:18:35 AM 45.9308 -108.9864 111° Southeast 256 295 10,300 -1,041 Descending Salt Lake Center
Sat 05:19:35 AM 45.9083 -108.8936 109° East 254 292 9,100 -1,400 Descending Salt Lake Center
Sat 05:20:35 AM 45.8803 -108.8036 114° Southeast 253 291 7,500 -1,550 Descending Salt Lake Center
Sat 05:21:35 AM 45.8539 -108.7031 111° Southeast 253 291 6,000 -1,200 Descending Salt Lake Center
Sat 05:22:35 AM 45.8336 -108.6303 112° Southeast 200 230 5,100 -950 Descending Salt Lake Center
Sat 05:23:35 AM 45.8169 -108.5694 111° Southeast 174 200 4,100 -744 Descending Salt Lake Center
Sat 05:24:36 AM 45.8019 -108.5300 119° Southeast 127 146 3,600 -492 Descending Salt Lake Center
Sat 05:26:00 AM 45.8000 -108.5333 270° West  Level FlightAware Approximate

Login

Don't have an account? Register now (free) for customized features, flight alerts, and more!